createdAt,value
2019-05-20T00:00:32.308Z,15.20
2019-05-20T00:02:58.301Z,15.61
2019-05-20T00:05:24.519Z,15.73
2019-05-20T00:07:50.878Z,15.69
2019-05-20T00:10:17.026Z,15.77
2019-05-20T00:12:43.047Z,15.54
2019-05-20T00:15:09.373Z,15.34
2019-05-20T00:17:35.382Z,14.98
2019-05-20T00:20:04.763Z,15.05
2019-05-20T00:22:30.945Z,15.16
2019-05-20T00:24:56.898Z,15.26
2019-05-20T00:27:22.866Z,15.29
2019-05-20T00:29:49.010Z,15.42
2019-05-20T00:32:15.096Z,15.31
2019-05-20T00:34:41.136Z,15.24
2019-05-20T00:37:07.388Z,15.09
2019-05-20T00:39:33.363Z,14.97
2019-05-20T00:41:59.320Z,14.88
2019-05-20T00:44:25.357Z,14.78
2019-05-20T00:46:51.599Z,14.72
2019-05-20T00:49:17.671Z,14.68
2019-05-20T00:51:44.604Z,14.69
2019-05-20T00:54:11.080Z,14.84
2019-05-20T00:56:37.480Z,14.93
2019-05-20T00:59:04.217Z,14.87
2019-05-20T01:01:30.189Z,14.88
2019-05-20T01:03:56.123Z,14.77
2019-05-20T01:06:22.222Z,14.70
2019-05-20T01:08:48.311Z,14.70
2019-05-20T01:11:14.324Z,14.66
2019-05-20T01:13:40.266Z,14.56
2019-05-20T01:16:06.646Z,14.44
2019-05-20T01:18:32.601Z,14.34
2019-05-20T01:20:59.010Z,14.34
2019-05-20T01:23:25.027Z,14.26
2019-05-20T01:25:51.015Z,14.16
2019-05-20T01:28:16.950Z,14.13
2019-05-20T01:30:42.930Z,14.18
2019-05-20T01:33:13.694Z,14.09
2019-05-20T01:35:36.883Z,13.94
2019-05-20T01:38:02.822Z,13.83
2019-05-20T01:40:29.109Z,13.69
2019-05-20T01:42:55.199Z,13.60
2019-05-20T01:45:21.182Z,13.59
2019-05-20T01:47:47.175Z,13.58
2019-05-20T01:50:13.217Z,13.58
2019-05-20T01:52:39.253Z,13.61
2019-05-20T01:55:07.416Z,13.63
2019-05-20T01:57:33.501Z,13.63
2019-05-20T01:59:59.534Z,13.62
2019-05-20T02:02:25.503Z,13.56
2019-05-20T02:04:51.606Z,13.50
2019-05-20T02:07:17.695Z,13.49
2019-05-20T02:09:43.830Z,13.49
2019-05-20T02:12:10.070Z,13.46
2019-05-20T02:14:36.117Z,13.45
2019-05-20T02:17:02.867Z,13.42
2019-05-20T02:19:29.150Z,13.47
2019-05-20T02:21:55.123Z,13.61
2019-05-20T02:24:21.078Z,13.61
2019-05-20T02:26:47.284Z,13.65
2019-05-20T02:29:13.237Z,13.33
2019-05-20T02:31:39.336Z,13.51
2019-05-20T02:34:05.393Z,13.46
2019-05-20T02:36:31.418Z,13.42
2019-05-20T02:38:58.655Z,13.30
2019-05-20T02:41:25.573Z,13.20
2019-05-20T02:43:52.660Z,13.14
2019-05-20T02:46:18.847Z,13.15
2019-05-20T02:48:44.874Z,13.14
2019-05-20T02:51:10.946Z,13.24
2019-05-20T02:53:36.879Z,13.25
2019-05-20T02:56:03.077Z,13.15
2019-05-20T02:58:29.199Z,13.10
2019-05-20T03:00:55.563Z,13.11
2019-05-20T03:03:21.601Z,13.06
2019-05-20T03:05:47.703Z,12.99
2019-05-20T03:08:13.972Z,12.90
2019-05-20T03:10:40.202Z,12.85
2019-05-20T03:13:06.289Z,12.64
2019-05-20T03:15:32.285Z,12.68
2019-05-20T03:17:58.265Z,12.75
2019-05-20T03:20:24.432Z,12.71
2019-05-20T03:22:50.511Z,12.61
2019-05-20T03:25:16.654Z,12.61
2019-05-20T03:27:42.615Z,12.53
2019-05-20T03:30:10.459Z,12.41
2019-05-20T03:32:36.647Z,12.43
2019-05-20T03:35:05.112Z,12.45
2019-05-20T03:37:31.306Z,12.53
2019-05-20T03:39:57.247Z,12.53
2019-05-20T03:42:23.214Z,12.48
2019-05-20T03:44:49.149Z,12.33
2019-05-20T03:47:15.493Z,12.12
2019-05-20T03:49:42.092Z,12.15
2019-05-20T03:52:08.168Z,12.10
2019-05-20T03:54:34.114Z,12.11
2019-05-20T03:57:01.590Z,12.27
2019-05-20T03:59:27.677Z,12.36
2019-05-20T04:01:55.007Z,12.55
2019-05-20T04:04:24.843Z,12.71
2019-05-20T04:06:49.108Z,12.82
2019-05-20T04:09:15.343Z,12.87
2019-05-20T04:11:41.301Z,12.95
2019-05-20T04:14:07.382Z,12.98
2019-05-20T04:16:33.418Z,12.99
2019-05-20T04:18:59.571Z,13.07
2019-05-20T04:21:25.960Z,13.25
2019-05-20T04:23:53.050Z,13.43
2019-05-20T04:26:19.065Z,13.77
2019-05-20T04:28:45.363Z,14.08
2019-05-20T04:31:11.446Z,14.47
2019-05-20T04:33:37.689Z,14.81
2019-05-20T04:36:03.809Z,15.14
2019-05-20T04:38:30.065Z,15.61
2019-05-20T04:40:56.055Z,16.00
2019-05-20T04:43:22.051Z,16.32
2019-05-20T04:45:49.100Z,16.69
2019-05-20T04:48:15.086Z,16.98
2019-05-20T04:50:41.132Z,17.02
2019-05-20T04:53:07.400Z,17.25
2019-05-20T04:55:33.349Z,17.40
2019-05-20T04:57:59.544Z,17.85
2019-05-20T05:00:49.253Z,18.19
2019-05-20T05:03:15.358Z,18.36
2019-05-20T05:05:41.488Z,18.52
2019-05-20T05:08:07.457Z,18.89
2019-05-20T05:10:33.504Z,19.14
2019-05-20T05:12:59.596Z,19.24
2019-05-20T05:15:25.548Z,19.37
2019-05-20T05:17:51.723Z,19.81
2019-05-20T05:20:18.764Z,20.01
2019-05-20T05:22:44.957Z,20.21
2019-05-20T05:25:11.246Z,20.23
2019-05-20T05:27:37.548Z,20.11
2019-05-20T05:30:04.642Z,19.80
2019-05-20T05:32:30.733Z,19.90
2019-05-20T05:34:56.851Z,19.96
2019-05-20T05:37:22.823Z,20.06
2019-05-20T05:39:48.769Z,20.33
2019-05-20T05:42:14.769Z,20.82
2019-05-20T05:44:40.830Z,21.48
2019-05-20T05:47:06.807Z,21.88
2019-05-20T05:49:32.964Z,22.52
2019-05-20T05:51:58.962Z,22.96
2019-05-20T05:54:26.293Z,23.05
2019-05-20T05:56:52.377Z,23.49
2019-05-20T05:59:18.338Z,23.96
2019-05-20T06:01:44.774Z,23.96
2019-05-20T06:04:10.717Z,24.05
2019-05-20T06:06:36.907Z,24.27
2019-05-20T06:09:05.259Z,24.32
2019-05-20T06:11:31.381Z,24.04
2019-05-20T06:13:59.523Z,23.34
2019-05-20T06:16:35.895Z,22.99
2019-05-20T06:18:53.364Z,22.70
2019-05-20T06:21:19.606Z,22.60
2019-05-20T06:23:45.561Z,22.86
2019-05-20T06:26:11.827Z,23.57
2019-05-20T06:28:37.844Z,23.81
2019-05-20T06:31:05.332Z,23.36
2019-05-20T06:33:31.741Z,22.54
2019-05-20T06:35:57.938Z,21.87
2019-05-20T06:38:24.518Z,21.38
2019-05-20T06:40:50.589Z,20.98
2019-05-20T06:43:16.788Z,20.64
2019-05-20T06:45:42.836Z,20.38
2019-05-20T06:48:09.007Z,20.15
2019-05-20T06:50:35.125Z,19.81
2019-05-20T06:53:01.362Z,19.64
2019-05-20T06:55:28.910Z,19.56
2019-05-20T06:57:54.996Z,19.51
2019-05-20T07:00:30.780Z,19.47
2019-05-20T07:02:57.009Z,19.40
2019-05-20T07:05:22.992Z,19.21
2019-05-20T07:07:49.083Z,19.15
2019-05-20T07:10:15.270Z,19.16
2019-05-20T07:12:41.981Z,19.15
2019-05-20T07:15:08.661Z,19.08
2019-05-20T07:17:35.398Z,19.00
2019-05-20T07:20:02.156Z,18.93
2019-05-20T07:22:28.243Z,19.01
2019-05-20T07:24:55.314Z,19.18
2019-05-20T07:27:21.499Z,19.37
2019-05-20T07:29:47.690Z,19.24
2019-05-20T07:32:13.851Z,19.36
2019-05-20T07:34:39.941Z,19.58
2019-05-20T07:37:05.987Z,19.67
2019-05-20T07:39:33.101Z,19.93
2019-05-20T07:41:59.310Z,20.11
2019-05-20T07:44:26.410Z,20.38
2019-05-20T07:46:52.974Z,20.62
2019-05-20T07:49:19.346Z,21.06
2019-05-20T07:51:46.494Z,21.72
2019-05-20T07:54:13.805Z,21.95
2019-05-20T07:56:45.000Z,22.39
2019-05-20T07:59:14.169Z,22.99
2019-05-20T08:01:40.498Z,23.39
2019-05-20T08:04:06.828Z,22.90
2019-05-20T08:06:33.159Z,22.84
2019-05-20T08:08:59.195Z,23.18
2019-05-20T08:11:25.426Z,23.13
2019-05-20T08:13:51.557Z,23.40
2019-05-20T08:16:17.758Z,23.34
2019-05-20T08:18:43.990Z,22.98
2019-05-20T08:21:10.163Z,23.02
2019-05-20T08:23:36.317Z,22.85
2019-05-20T08:26:02.539Z,22.32
2019-05-20T08:28:28.932Z,22.54
2019-05-20T08:30:55.427Z,22.02
2019-05-20T08:33:21.762Z,21.81
2019-05-20T08:35:48.807Z,22.14
2019-05-20T08:38:15.155Z,22.05
2019-05-20T08:40:41.408Z,22.15
2019-05-20T08:43:07.489Z,22.99
2019-05-20T08:45:34.053Z,23.28
2019-05-20T08:48:00.025Z,23.44
2019-05-20T08:50:25.999Z,23.36
2019-05-20T08:52:52.096Z,23.22
2019-05-20T08:55:18.450Z,23.03
2019-05-20T08:57:44.728Z,22.86
2019-05-20T09:00:23.245Z,22.91
2019-05-20T09:02:48.448Z,22.85
2019-05-20T09:05:14.805Z,22.93
2019-05-20T09:07:40.885Z,22.99
2019-05-20T09:10:07.193Z,23.13
2019-05-20T09:12:33.598Z,23.00
2019-05-20T09:14:59.585Z,22.85
2019-05-20T09:17:25.704Z,23.05
2019-05-20T09:19:51.826Z,23.73
2019-05-20T09:22:17.994Z,24.18
2019-05-20T09:24:44.174Z,24.77
2019-05-20T09:27:10.452Z,25.37
2019-05-20T09:29:38.149Z,25.51
2019-05-20T09:32:04.381Z,25.54
2019-05-20T09:34:30.759Z,25.40
2019-05-20T09:36:56.811Z,25.38
2019-05-20T09:39:23.156Z,25.07
2019-05-20T09:41:49.258Z,25.18
2019-05-20T09:44:15.271Z,24.93
2019-05-20T09:46:41.527Z,25.03
2019-05-20T09:49:07.628Z,25.29
2019-05-20T09:51:33.854Z,25.72
2019-05-20T09:54:00.013Z,25.99
2019-05-20T09:56:26.148Z,26.15
2019-05-20T09:58:52.136Z,26.23
2019-05-20T10:01:18.508Z,26.24
2019-05-20T10:03:44.547Z,26.08
2019-05-20T10:06:11.763Z,26.36
2019-05-20T10:08:44.190Z,26.55
2019-05-20T10:11:06.489Z,26.56
2019-05-20T10:13:32.521Z,26.77
2019-05-20T10:15:58.541Z,26.11
2019-05-20T10:18:36.837Z,26.03
2019-05-20T10:20:53.278Z,26.43
2019-05-20T10:23:19.376Z,25.28
2019-05-20T10:25:45.533Z,24.72
2019-05-20T10:28:11.531Z,24.31
2019-05-20T10:30:37.731Z,24.61
2019-05-20T10:33:09.842Z,24.16
2019-05-20T10:35:31.827Z,24.34
2019-05-20T10:37:57.933Z,23.94
2019-05-20T10:40:23.974Z,24.02
2019-05-20T10:42:49.946Z,23.95
2019-05-20T10:45:17.377Z,24.03
2019-05-20T10:47:43.573Z,24.42
2019-05-20T10:50:10.023Z,24.22
2019-05-20T10:52:36.249Z,24.13
2019-05-20T10:55:05.424Z,24.06
2019-05-20T10:57:31.656Z,24.33
2019-05-20T10:59:57.892Z,24.78
2019-05-20T11:02:24.721Z,24.46
2019-05-20T11:04:51.200Z,24.09
2019-05-20T11:07:17.792Z,24.08
2019-05-20T11:09:46.680Z,24.35
2019-05-20T11:12:12.799Z,24.49
2019-05-20T11:14:39.034Z,24.92
2019-05-20T11:17:05.493Z,25.01
2019-05-20T11:19:31.660Z,25.48
2019-05-20T11:21:57.834Z,26.01
2019-05-20T11:24:23.944Z,25.58
2019-05-20T11:26:50.273Z,26.13
2019-05-20T11:29:16.502Z,26.16
2019-05-20T11:31:42.731Z,26.33
2019-05-20T11:34:08.858Z,26.14
2019-05-20T11:36:35.305Z,26.10
2019-05-20T11:39:01.543Z,25.82
2019-05-20T11:41:52.151Z,25.98
2019-05-20T11:43:58.177Z,26.56
2019-05-20T11:46:24.497Z,26.95
2019-05-20T11:48:50.733Z,27.21
2019-05-20T11:51:16.944Z,27.28
2019-05-20T11:53:43.263Z,27.28
2019-05-20T11:56:11.987Z,26.94
2019-05-20T11:58:37.359Z,27.10
2019-05-20T12:01:03.500Z,27.43
2019-05-20T12:03:29.558Z,27.42
2019-05-20T12:05:55.865Z,27.76
2019-05-20T12:08:22.225Z,27.82
2019-05-20T12:10:49.781Z,27.41
2019-05-20T12:13:16.258Z,27.13
2019-05-20T12:15:42.419Z,26.97
2019-05-20T12:18:08.736Z,26.65
2019-05-20T12:20:35.064Z,26.19
2019-05-20T12:23:01.191Z,26.05
2019-05-20T12:25:27.418Z,25.96
2019-05-20T12:27:53.648Z,25.49
2019-05-20T12:30:22.954Z,25.05
2019-05-20T12:32:49.173Z,24.68
2019-05-20T12:35:15.509Z,24.49
2019-05-20T12:37:45.357Z,22.96
2019-05-20T12:40:11.904Z,18.72
2019-05-20T12:42:38.298Z,16.70
2019-05-20T12:45:07.834Z,15.62
2019-05-20T12:47:34.211Z,15.40
2019-05-20T12:50:00.522Z,15.73
2019-05-20T12:52:26.777Z,15.90
2019-05-20T12:55:06.695Z,16.15
2019-05-20T12:57:21.281Z,16.43
2019-05-20T12:59:50.379Z,16.42
2019-05-20T13:02:17.564Z,16.65
2019-05-20T13:04:44.156Z,16.85
2019-05-20T13:07:10.489Z,16.95
2019-05-20T13:09:36.613Z,16.97
2019-05-20T13:12:03.257Z,16.97
2019-05-20T13:14:29.195Z,16.91
2019-05-20T13:16:55.361Z,16.91
2019-05-20T13:19:21.339Z,17.02
2019-05-20T13:21:47.616Z,17.06
2019-05-20T13:24:13.723Z,17.19
2019-05-20T13:26:39.870Z,17.29
2019-05-20T13:29:05.822Z,17.30
2019-05-20T13:31:31.927Z,17.33
2019-05-20T13:33:57.837Z,17.38
2019-05-20T13:36:23.858Z,17.39
2019-05-20T13:38:49.863Z,17.38
2019-05-20T13:41:15.977Z,17.32
2019-05-20T13:43:42.025Z,17.43
2019-05-20T13:46:08.060Z,17.46
2019-05-20T13:48:35.315Z,17.54
2019-05-20T13:51:01.638Z,15.24
2019-05-20T13:53:27.736Z,17.67
2019-05-20T13:55:53.822Z,17.75
2019-05-20T13:58:19.799Z,17.80
2019-05-20T14:00:45.726Z,17.72
2019-05-20T14:03:12.806Z,17.71
2019-05-20T14:05:38.840Z,17.74
2019-05-20T14:08:04.847Z,17.77
2019-05-20T14:10:30.779Z,17.85
2019-05-20T14:12:56.754Z,17.84
2019-05-20T14:15:22.991Z,17.85
2019-05-20T14:17:48.987Z,17.82
2019-05-20T14:20:16.777Z,17.84
2019-05-20T14:22:42.825Z,16.84
2019-05-20T14:25:09.551Z,17.50
2019-05-20T14:27:36.975Z,17.19
2019-05-20T14:30:07.197Z,17.35
2019-05-20T14:32:33.438Z,17.35
2019-05-20T14:34:59.425Z,17.28
2019-05-20T14:37:25.587Z,17.20
2019-05-20T14:39:52.971Z,17.08
2019-05-20T14:42:19.739Z,17.14
2019-05-20T14:44:45.684Z,17.04
2019-05-20T14:47:11.624Z,16.82
2019-05-20T14:49:37.863Z,17.01
2019-05-20T14:52:03.942Z,17.13
2019-05-20T14:54:29.964Z,17.29
2019-05-20T14:56:57.131Z,17.33
2019-05-20T14:59:23.381Z,17.34
2019-05-20T15:01:49.316Z,16.98
2019-05-20T15:04:15.512Z,16.91
2019-05-20T15:06:41.746Z,17.13
2019-05-20T15:09:08.064Z,17.27
2019-05-20T15:11:38.306Z,17.14
2019-05-20T15:14:02.224Z,15.87
2019-05-20T15:16:28.180Z,15.37
2019-05-20T15:18:54.320Z,15.47
2019-05-20T15:21:20.516Z,15.53
2019-05-20T15:23:46.644Z,15.57
2019-05-20T15:26:12.696Z,15.64
2019-05-20T15:28:38.629Z,15.76
2019-05-20T15:31:05.896Z,15.81
2019-05-20T15:33:31.857Z,15.88
2019-05-20T15:35:58.031Z,15.94
2019-05-20T15:38:24.169Z,16.00
2019-05-20T15:40:50.227Z,15.97
2019-05-20T15:43:16.342Z,16.09
2019-05-20T15:45:42.764Z,16.09
2019-05-20T15:48:08.760Z,16.18
2019-05-20T15:50:35.064Z,16.25
2019-05-20T15:53:01.024Z,16.38
2019-05-20T15:55:28.236Z,16.36
2019-05-20T15:57:54.391Z,16.34
2019-05-20T16:00:20.819Z,16.48
2019-05-20T16:02:46.824Z,16.59
2019-05-20T16:05:13.050Z,16.65
2019-05-20T16:07:39.424Z,16.79
2019-05-20T16:10:05.931Z,16.86
2019-05-20T16:12:34.278Z,16.88
2019-05-20T16:15:00.226Z,16.88
2019-05-20T16:17:26.490Z,16.83
2019-05-20T16:19:52.566Z,16.76
2019-05-20T16:22:18.602Z,16.66
2019-05-20T16:24:45.418Z,16.65
2019-05-20T16:27:11.609Z,16.74
2019-05-20T16:29:37.539Z,16.63
2019-05-20T16:32:03.695Z,16.73
2019-05-20T16:34:29.842Z,16.88
2019-05-20T16:36:55.823Z,16.95
2019-05-20T16:39:22.099Z,16.95
2019-05-20T16:41:48.226Z,16.85
2019-05-20T16:44:14.280Z,16.79
2019-05-20T16:46:40.460Z,16.78
2019-05-20T16:49:06.620Z,16.76
2019-05-20T16:51:32.683Z,16.71
2019-05-20T16:53:58.733Z,16.67
2019-05-20T16:56:24.810Z,16.63
2019-05-20T16:58:50.996Z,16.63
2019-05-20T17:01:16.999Z,16.66
2019-05-20T17:03:43.204Z,16.63
2019-05-20T17:06:09.317Z,16.58
2019-05-20T17:08:35.457Z,16.61
2019-05-20T17:11:01.632Z,16.60
2019-05-20T17:13:27.726Z,16.65
2019-05-20T17:15:53.717Z,16.71
2019-05-20T17:18:19.882Z,16.69
2019-05-20T17:20:46.602Z,16.70
2019-05-20T17:23:12.771Z,16.58
2019-05-20T17:25:38.702Z,16.58
2019-05-20T17:28:04.825Z,16.40
2019-05-20T17:30:44.287Z,16.24
2019-05-20T17:32:59.293Z,16.34
2019-05-20T17:35:25.600Z,16.48
2019-05-20T17:37:55.069Z,16.47
2019-05-20T17:40:21.313Z,16.48
2019-05-20T17:42:47.499Z,16.43
2019-05-20T17:45:14.875Z,16.49
2019-05-20T17:47:41.510Z,16.39
2019-05-20T17:50:08.019Z,16.37
2019-05-20T17:52:33.989Z,16.29
2019-05-20T17:54:59.934Z,16.28
2019-05-20T17:57:26.312Z,16.23
2019-05-20T17:59:52.223Z,16.20
2019-05-20T18:02:18.375Z,16.13
2019-05-20T18:04:44.703Z,16.08
2019-05-20T18:07:10.635Z,16.09
2019-05-20T18:09:36.902Z,16.06
2019-05-20T18:12:03.149Z,16.04
2019-05-20T18:14:29.260Z,16.02
2019-05-20T18:16:55.228Z,16.00
2019-05-20T18:19:21.211Z,15.98
2019-05-20T18:21:47.334Z,15.94
2019-05-20T18:24:13.372Z,16.08
2019-05-20T18:26:39.432Z,16.14
2019-05-20T18:29:05.536Z,16.18
2019-05-20T18:31:33.081Z,16.30
2019-05-20T18:33:59.549Z,16.46
2019-05-20T18:36:25.833Z,16.58
2019-05-20T18:38:52.078Z,16.64
2019-05-20T18:41:18.865Z,16.79
2019-05-20T18:43:44.963Z,16.84
2019-05-20T18:46:11.100Z,16.99
2019-05-20T18:48:37.190Z,17.01
2019-05-20T18:51:03.326Z,17.09
2019-05-20T18:53:30.330Z,17.01
2019-05-20T18:55:56.392Z,16.92
2019-05-20T18:58:22.715Z,16.99
2019-05-20T19:00:48.811Z,17.04
2019-05-20T19:03:14.847Z,17.06
2019-05-20T19:05:40.838Z,16.94
2019-05-20T19:08:07.911Z,16.83
2019-05-20T19:10:33.963Z,16.83
2019-05-20T19:13:00.052Z,16.76
2019-05-20T19:15:26.194Z,16.71
2019-05-20T19:17:52.475Z,16.69
2019-05-20T19:20:18.580Z,16.63
2019-05-20T19:22:44.765Z,16.63
2019-05-20T19:25:10.983Z,16.66
2019-05-20T19:27:37.052Z,16.77
2019-05-20T19:30:05.484Z,16.75
2019-05-20T19:32:32.887Z,16.64
2019-05-20T19:34:59.230Z,16.64
2019-05-20T19:37:25.599Z,16.50
2019-05-20T19:39:51.723Z,16.51
2019-05-20T19:42:17.654Z,16.48
2019-05-20T19:44:43.861Z,16.48
2019-05-20T19:47:10.062Z,16.63
2019-05-20T19:49:36.242Z,16.42
2019-05-20T19:52:02.453Z,16.58
2019-05-20T19:54:28.484Z,16.51
2019-05-20T19:56:54.606Z,16.43
2019-05-20T19:59:20.734Z,16.35
2019-05-20T20:01:46.712Z,16.24
2019-05-20T20:04:12.884Z,16.32
2019-05-20T20:06:38.965Z,16.23
2019-05-20T20:09:06.666Z,16.16
2019-05-20T20:11:32.911Z,16.16
2019-05-20T20:13:59.113Z,16.18
2019-05-20T20:16:25.415Z,16.09
2019-05-20T20:18:51.584Z,16.10
2019-05-20T20:21:17.521Z,16.18
2019-05-20T20:23:43.774Z,16.17
2019-05-20T20:26:09.744Z,16.14
2019-05-20T20:28:36.032Z,16.09
2019-05-20T20:31:02.143Z,15.45
2019-05-20T20:33:28.077Z,16.13
2019-05-20T20:35:54.171Z,16.18
2019-05-20T20:38:20.193Z,16.16
2019-05-20T20:40:46.429Z,16.08
2019-05-20T20:43:12.377Z,16.00
2019-05-20T20:45:38.659Z,16.01
2019-05-20T20:48:04.739Z,16.05
2019-05-20T20:50:30.875Z,16.06
2019-05-20T20:52:56.905Z,16.07
2019-05-20T20:55:22.989Z,16.03
2019-05-20T20:57:48.949Z,16.06
2019-05-20T21:00:15.321Z,16.13
2019-05-20T21:02:52.923Z,16.33
2019-05-20T21:05:09.890Z,16.38
2019-05-20T21:07:35.835Z,16.49
2019-05-20T21:10:03.875Z,16.51
2019-05-20T21:12:30.077Z,16.59
2019-05-20T21:14:56.125Z,16.52
2019-05-20T21:17:22.273Z,16.43
2019-05-20T21:19:48.330Z,16.51
2019-05-20T21:22:14.270Z,16.45
2019-05-20T21:24:40.838Z,16.43
2019-05-20T21:27:06.785Z,16.43
2019-05-20T21:29:32.871Z,16.45
2019-05-20T21:31:58.997Z,16.40
2019-05-20T21:34:25.190Z,16.32
2019-05-20T21:36:51.363Z,16.18
2019-05-20T21:39:17.359Z,16.02
2019-05-20T21:41:43.296Z,15.99
2019-05-20T21:44:09.331Z,15.99
2019-05-20T21:46:35.314Z,16.24
2019-05-20T21:49:01.292Z,16.26
2019-05-20T21:51:27.566Z,16.32
2019-05-20T21:53:53.519Z,16.22
2019-05-20T21:56:19.463Z,16.22
2019-05-20T21:58:45.513Z,16.20
2019-05-20T22:01:11.591Z,16.16
2019-05-20T22:03:37.674Z,16.17
2019-05-20T22:06:03.902Z,16.06
2019-05-20T22:08:29.971Z,16.03
2019-05-20T22:10:56.224Z,15.99
2019-05-20T22:13:22.383Z,16.09
2019-05-20T22:15:48.375Z,16.09
2019-05-20T22:18:14.395Z,16.18
2019-05-20T22:20:40.388Z,16.06
2019-05-20T22:23:06.529Z,16.00
2019-05-20T22:25:34.336Z,16.06
2019-05-20T22:28:00.299Z,16.26
2019-05-20T22:30:26.304Z,16.17
2019-05-20T22:32:52.263Z,16.23
2019-05-20T22:35:18.494Z,16.15
2019-05-20T22:37:44.585Z,16.00
2019-05-20T22:40:10.848Z,15.90
2019-05-20T22:42:36.949Z,15.86
2019-05-20T22:45:04.397Z,15.88
2019-05-20T22:47:30.528Z,15.83
2019-05-20T22:49:56.471Z,15.83
2019-05-20T22:52:22.973Z,15.87
2019-05-20T22:54:48.906Z,15.94
2019-05-20T22:57:15.027Z,15.94
2019-05-20T22:59:41.052Z,15.98
2019-05-20T23:02:07.043Z,15.90
2019-05-20T23:04:33.069Z,15.89
2019-05-20T23:06:59.528Z,15.93
2019-05-20T23:09:25.513Z,15.95
2019-05-20T23:11:52.033Z,15.87
2019-05-20T23:14:17.976Z,15.86
2019-05-20T23:16:43.961Z,15.83
2019-05-20T23:19:10.255Z,15.93
2019-05-20T23:21:36.251Z,15.93
2019-05-20T23:24:02.277Z,16.05
2019-05-20T23:26:28.365Z,15.99
2019-05-20T23:28:54.301Z,15.96
2019-05-20T23:31:20.307Z,15.84
2019-05-20T23:33:46.261Z,15.81
2019-05-20T23:36:12.390Z,15.83
2019-05-20T23:38:38.394Z,15.93
2019-05-20T23:41:04.697Z,15.96
2019-05-20T23:43:30.984Z,15.96
2019-05-20T23:45:56.932Z,16.01
2019-05-20T23:48:22.913Z,15.95
2019-05-20T23:50:48.937Z,15.95
2019-05-20T23:53:14.879Z,15.98
2019-05-20T23:55:42.121Z,15.89
2019-05-20T23:58:08.108Z,15.90
